sensor_id;sensor_type;location;lat;lon;timestamp;temperature;humidity
42421;DHT22;28063;48.140;11.588;2022-07-10T00:01:51;18.90;76.20
42421;DHT22;28063;48.140;11.588;2022-07-10T00:04:16;19.00;76.40
42421;DHT22;28063;48.140;11.588;2022-07-10T00:06:44;18.90;76.90
42421;DHT22;28063;48.140;11.588;2022-07-10T00:09:12;19.00;76.70
42421;DHT22;28063;48.140;11.588;2022-07-10T00:11:39;19.10;76.30
42421;DHT22;28063;48.140;11.588;2022-07-10T00:14:05;19.10;76.40
42421;DHT22;28063;48.140;11.588;2022-07-10T00:16:30;19.00;76.60
42421;DHT22;28063;48.140;11.588;2022-07-10T00:18:56;18.90;76.90
42421;DHT22;28063;48.140;11.588;2022-07-10T00:21:22;19.00;77.40
42421;DHT22;28063;48.140;11.588;2022-07-10T00:23:47;19.00;77.10
42421;DHT22;28063;48.140;11.588;2022-07-10T00:26:13;19.00;77.50
42421;DHT22;28063;48.140;11.588;2022-07-10T00:28:39;18.90;78.20
42421;DHT22;28063;48.140;11.588;2022-07-10T00:31:05;18.90;79.40
42421;DHT22;28063;48.140;11.588;2022-07-10T00:33:30;18.80;80.00
42421;DHT22;28063;48.140;11.588;2022-07-10T00:35:58;18.70;81.20
42421;DHT22;28063;48.140;11.588;2022-07-10T00:38:24;18.60;82.70
42421;DHT22;28063;48.140;11.588;2022-07-10T00:40:50;18.40;85.30
42421;DHT22;28063;48.140;11.588;2022-07-10T00:43:16;18.00;90.40
42421;DHT22;28063;48.140;11.588;2022-07-10T00:45:42;17.60;91.90
42421;DHT22;28063;48.140;11.588;2022-07-10T00:48:08;17.30;93.10
42421;DHT22;28063;48.140;11.588;2022-07-10T00:50:35;17.00;94.90
42421;DHT22;28063;48.140;11.588;2022-07-10T00:53:01;16.80;96.70
42421;DHT22;28063;48.140;11.588;2022-07-10T00:55:30;16.70;97.70
42421;DHT22;28063;48.140;11.588;2022-07-10T00:57:58;16.60;98.70
42421;DHT22;28063;48.140;11.588;2022-07-10T01:00:25;16.50;99.90
42421;DHT22;28063;48.140;11.588;2022-07-10T01:02:52;16.40;99.90
42421;DHT22;28063;48.140;11.588;2022-07-10T01:05:18;16.30;99.90
42421;DHT22;28063;48.140;11.588;2022-07-10T01:07:43;16.30;99.90
42421;DHT22;28063;48.140;11.588;2022-07-10T01:10:10;16.30;99.90
42421;DHT22;28063;48.140;11.588;2022-07-10T01:12:36;16.30;99.90
42421;DHT22;28063;48.140;11.588;2022-07-10T01:15:04;16.30;99.90
42421;DHT22;28063;48.140;11.588;2022-07-10T01:17:30;16.30;99.90
42421;DHT22;28063;48.140;11.588;2022-07-10T01:19:56;16.30;99.90
42421;DHT22;28063;48.140;11.588;2022-07-10T01:22:21;16.40;99.90
42421;DHT22;28063;48.140;11.588;2022-07-10T01:24:47;16.50;99.90
42421;DHT22;28063;48.140;11.588;2022-07-10T01:27:13;16.50;99.90
42421;DHT22;28063;48.140;11.588;2022-07-10T01:29:39;16.40;99.90
42421;DHT22;28063;48.140;11.588;2022-07-10T01:32:05;16.40;99.90
42421;DHT22;28063;48.140;11.588;2022-07-10T01:34:32;16.40;99.90
42421;DHT22;28063;48.140;11.588;2022-07-10T01:36:57;16.30;99.90
42421;DHT22;28063;48.140;11.588;2022-07-10T01:39:23;16.20;99.90
42421;DHT22;28063;48.140;11.588;2022-07-10T01:41:49;16.10;99.90
42421;DHT22;28063;48.140;11.588;2022-07-10T01:44:14;16.20;99.90
42421;DHT22;28063;48.140;11.588;2022-07-10T01:46:44;16.20;99.90
42421;DHT22;28063;48.140;11.588;2022-07-10T01:49:13;16.10;99.90
42421;DHT22;28063;48.140;11.588;2022-07-10T01:51:39;16.20;99.90
42421;DHT22;28063;48.140;11.588;2022-07-10T01:54:05;16.10;99.90
42421;DHT22;28063;48.140;11.588;2022-07-10T01:56:31;16.20;99.90
42421;DHT22;28063;48.140;11.588;2022-07-10T01:58:56;16.20;99.90
42421;DHT22;28063;48.140;11.588;2022-07-10T02:01:22;16.20;99.90
42421;DHT22;28063;48.140;11.588;2022-07-10T02:03:48;16.20;99.90
42421;DHT22;28063;48.140;11.588;2022-07-10T02:06:32;16.10;99.90
42421;DHT22;28063;48.140;11.588;2022-07-10T02:08:58;16.10;99.90
42421;DHT22;28063;48.140;11.588;2022-07-10T02:11:24;16.00;99.90
42421;DHT22;28063;48.140;11.588;2022-07-10T02:13:50;16.10;99.90
42421;DHT22;28063;48.140;11.588;2022-07-10T02:16:16;16.10;99.90
42421;DHT22;28063;48.140;11.588;2022-07-10T02:18:41;16.10;99.90
42421;DHT22;28063;48.140;11.588;2022-07-10T02:21:08;16.10;99.90
42421;DHT22;28063;48.140;11.588;2022-07-10T02:23:35;16.20;99.90
42421;DHT22;28063;48.140;11.588;2022-07-10T02:26:01;16.20;99.90
42421;DHT22;28063;48.140;11.588;2022-07-10T02:28:27;16.20;99.90
42421;DHT22;28063;48.140;11.588;2022-07-10T02:30:53;16.20;99.90
42421;DHT22;28063;48.140;11.588;2022-07-10T02:33:19;16.20;99.90
42421;DHT22;28063;48.140;11.588;2022-07-10T02:35:44;16.20;99.90
42421;DHT22;28063;48.140;11.588;2022-07-10T02:38:10;16.10;99.90
42421;DHT22;28063;48.140;11.588;2022-07-10T02:40:36;16.10;99.90
42421;DHT22;28063;48.140;11.588;2022-07-10T02:43:02;16.00;99.90
42421;DHT22;28063;48.140;11.588;2022-07-10T02:45:28;15.90;99.90
42421;DHT22;28063;48.140;11.588;2022-07-10T02:47:53;16.00;99.90
42421;DHT22;28063;48.140;11.588;2022-07-10T02:50:19;15.90;99.90
42421;DHT22;28063;48.140;11.588;2022-07-10T02:52:45;15.90;99.90
42421;DHT22;28063;48.140;11.588;2022-07-10T02:55:11;15.90;99.90
42421;DHT22;28063;48.140;11.588;2022-07-10T02:57:36;15.90;99.90
42421;DHT22;28063;48.140;11.588;2022-07-10T03:00:03;15.90;99.90
42421;DHT22;28063;48.140;11.588;2022-07-10T03:02:29;15.90;99.90
42421;DHT22;28063;48.140;11.588;2022-07-10T03:04:55;15.90;99.90
42421;DHT22;28063;48.140;11.588;2022-07-10T03:07:20;15.90;99.90
42421;DHT22;28063;48.140;11.588;2022-07-10T03:09:46;15.90;99.90
42421;DHT22;28063;48.140;11.588;2022-07-10T03:12:12;15.90;99.90
42421;DHT22;28063;48.140;11.588;2022-07-10T03:14:37;15.90;99.90
42421;DHT22;28063;48.140;11.588;2022-07-10T03:17:04;15.80;99.90
42421;DHT22;28063;48.140;11.588;2022-07-10T03:19:29;15.80;99.90
42421;DHT22;28063;48.140;11.588;2022-07-10T03:21:55;15.80;99.90
42421;DHT22;28063;48.140;11.588;2022-07-10T03:24:21;15.80;99.90
42421;DHT22;28063;48.140;11.588;2022-07-10T03:26:46;15.70;99.90
42421;DHT22;28063;48.140;11.588;2022-07-10T03:29:12;15.70;99.90
42421;DHT22;28063;48.140;11.588;2022-07-10T03:31:38;15.70;99.90
42421;DHT22;28063;48.140;11.588;2022-07-10T03:34:03;15.70;99.90
42421;DHT22;28063;48.140;11.588;2022-07-10T03:36:30;15.60;99.90
42421;DHT22;28063;48.140;11.588;2022-07-10T03:38:56;15.60;99.90
42421;DHT22;28063;48.140;11.588;2022-07-10T03:41:21;15.50;99.90
42421;DHT22;28063;48.140;11.588;2022-07-10T03:43:47;15.50;99.90
42421;DHT22;28063;48.140;11.588;2022-07-10T03:46:13;15.50;99.90
42421;DHT22;28063;48.140;11.588;2022-07-10T03:48:41;15.50;99.90
42421;DHT22;28063;48.140;11.588;2022-07-10T03:51:06;15.50;99.90
42421;DHT22;28063;48.140;11.588;2022-07-10T03:53:32;15.50;99.90
42421;DHT22;28063;48.140;11.588;2022-07-10T03:55:58;15.50;99.90
42421;DHT22;28063;48.140;11.588;2022-07-10T03:58:26;15.50;99.90
42421;DHT22;28063;48.140;11.588;2022-07-10T04:00:52;15.60;99.90
42421;DHT22;28063;48.140;11.588;2022-07-10T04:03:18;15.60;99.90
42421;DHT22;28063;48.140;11.588;2022-07-10T04:05:44;15.70;99.90
42421;DHT22;28063;48.140;11.588;2022-07-10T04:08:09;15.70;99.90
42421;DHT22;28063;48.140;11.588;2022-07-10T04:10:35;15.70;99.90
42421;DHT22;28063;48.140;11.588;2022-07-10T04:13:02;15.80;99.90
42421;DHT22;28063;48.140;11.588;2022-07-10T04:15:28;15.80;99.90
42421;DHT22;28063;48.140;11.588;2022-07-10T04:17:54;15.90;99.90
42421;DHT22;28063;48.140;11.588;2022-07-10T04:20:21;16.00;99.90
42421;DHT22;28063;48.140;11.588;2022-07-10T04:22:47;16.00;99.90
42421;DHT22;28063;48.140;11.588;2022-07-10T04:25:13;16.10;99.90
42421;DHT22;28063;48.140;11.588;2022-07-10T04:27:39;16.20;99.90
42421;DHT22;28063;48.140;11.588;2022-07-10T04:30:06;16.20;99.90
42421;DHT22;28063;48.140;11.588;2022-07-10T04:32:32;16.40;99.90
42421;DHT22;28063;48.140;11.588;2022-07-10T04:34:58;16.40;99.90
42421;DHT22;28063;48.140;11.588;2022-07-10T04:37:24;16.50;99.90
42421;DHT22;28063;48.140;11.588;2022-07-10T04:39:50;16.60;99.90
42421;DHT22;28063;48.140;11.588;2022-07-10T04:42:15;16.60;99.90
42421;DHT22;28063;48.140;11.588;2022-07-10T04:44:41;16.60;99.90
42421;DHT22;28063;48.140;11.588;2022-07-10T04:47:07;16.50;99.90
42421;DHT22;28063;48.140;11.588;2022-07-10T04:49:33;16.50;99.90
42421;DHT22;28063;48.140;11.588;2022-07-10T04:51:59;16.50;99.90
42421;DHT22;28063;48.140;11.588;2022-07-10T04:54:25;16.50;99.90
42421;DHT22;28063;48.140;11.588;2022-07-10T04:56:52;16.40;99.90
42421;DHT22;28063;48.140;11.588;2022-07-10T04:59:18;16.40;99.90
42421;DHT22;28063;48.140;11.588;2022-07-10T05:01:43;16.40;99.90
42421;DHT22;28063;48.140;11.588;2022-07-10T05:04:10;16.40;99.90
42421;DHT22;28063;48.140;11.588;2022-07-10T05:06:35;16.50;99.90
42421;DHT22;28063;48.140;11.588;2022-07-10T05:09:02;16.40;99.90
42421;DHT22;28063;48.140;11.588;2022-07-10T05:11:28;16.50;99.90
42421;DHT22;28063;48.140;11.588;2022-07-10T05:13:55;16.50;99.90
42421;DHT22;28063;48.140;11.588;2022-07-10T05:16:21;16.60;99.90
42421;DHT22;28063;48.140;11.588;2022-07-10T05:18:48;16.60;99.90
42421;DHT22;28063;48.140;11.588;2022-07-10T05:21:14;16.60;99.90
42421;DHT22;28063;48.140;11.588;2022-07-10T05:23:40;16.70;99.90
42421;DHT22;28063;48.140;11.588;2022-07-10T05:26:06;16.60;99.90
42421;DHT22;28063;48.140;11.588;2022-07-10T05:28:32;16.60;99.90
42421;DHT22;28063;48.140;11.588;2022-07-10T05:30:58;16.60;99.90
42421;DHT22;28063;48.140;11.588;2022-07-10T05:33:25;16.60;99.90
42421;DHT22;28063;48.140;11.588;2022-07-10T05:35:54;16.70;99.90
42421;DHT22;28063;48.140;11.588;2022-07-10T05:38:20;16.70;99.90
42421;DHT22;28063;48.140;11.588;2022-07-10T05:40:46;16.80;99.90
42421;DHT22;28063;48.140;11.588;2022-07-10T05:43:12;16.70;99.90
42421;DHT22;28063;48.140;11.588;2022-07-10T05:45:40;16.70;99.90
42421;DHT22;28063;48.140;11.588;2022-07-10T05:48:06;16.60;99.90
42421;DHT22;28063;48.140;11.588;2022-07-10T05:50:32;16.60;99.90
42421;DHT22;28063;48.140;11.588;2022-07-10T05:53:00;16.60;99.90
42421;DHT22;28063;48.140;11.588;2022-07-10T05:55:26;16.50;99.90
42421;DHT22;28063;48.140;11.588;2022-07-10T05:57:52;16.60;99.90
42421;DHT22;28063;48.140;11.588;2022-07-10T06:00:20;16.80;99.90
42421;DHT22;28063;48.140;11.588;2022-07-10T06:02:48;16.90;99.90
42421;DHT22;28063;48.140;11.588;2022-07-10T06:05:13;16.90;99.90
42421;DHT22;28063;48.140;11.588;2022-07-10T06:07:39;16.90;99.70
42421;DHT22;28063;48.140;11.588;2022-07-10T06:10:05;17.00;98.60
42421;DHT22;28063;48.140;11.588;2022-07-10T06:12:32;17.10;98.50
42421;DHT22;28063;48.140;11.588;2022-07-10T06:14:58;17.30;98.60
42421;DHT22;28063;48.140;11.588;2022-07-10T06:17:23;17.60;97.60
42421;DHT22;28063;48.140;11.588;2022-07-10T06:19:49;17.80;96.20
42421;DHT22;28063;48.140;11.588;2022-07-10T06:22:15;17.70;96.10
42421;DHT22;28063;48.140;11.588;2022-07-10T06:24:56;17.50;96.70
42421;DHT22;28063;48.140;11.588;2022-07-10T06:27:22;17.40;96.90
42421;DHT22;28063;48.140;11.588;2022-07-10T06:29:48;17.20;97.20
42421;DHT22;28063;48.140;11.588;2022-07-10T06:32:14;17.10;97.30
42421;DHT22;28063;48.140;11.588;2022-07-10T06:34:39;17.10;97.20
42421;DHT22;28063;48.140;11.588;2022-07-10T06:37:06;17.10;97.80
42421;DHT22;28063;48.140;11.588;2022-07-10T06:39:33;17.00;97.70
42421;DHT22;28063;48.140;11.588;2022-07-10T06:42:03;16.90;98.20
42421;DHT22;28063;48.140;11.588;2022-07-10T06:44:29;16.80;98.40
42421;DHT22;28063;48.140;11.588;2022-07-10T06:46:55;16.80;98.60
42421;DHT22;28063;48.140;11.588;2022-07-10T06:49:40;16.60;99.50
42421;DHT22;28063;48.140;11.588;2022-07-10T06:52:06;16.80;99.80
42421;DHT22;28063;48.140;11.588;2022-07-10T06:54:32;17.20;98.20
42421;DHT22;28063;48.140;11.588;2022-07-10T06:56:58;17.30;97.60
42421;DHT22;28063;48.140;11.588;2022-07-10T06:59:26;17.10;97.80
42421;DHT22;28063;48.140;11.588;2022-07-10T07:01:52;16.90;97.90
42421;DHT22;28063;48.140;11.588;2022-07-10T07:04:20;16.70;98.50
42421;DHT22;28063;48.140;11.588;2022-07-10T07:06:46;16.70;98.50
42421;DHT22;28063;48.140;11.588;2022-07-10T07:09:12;16.80;98.50
42421;DHT22;28063;48.140;11.588;2022-07-10T07:11:38;17.20;97.90
42421;DHT22;28063;48.140;11.588;2022-07-10T07:14:03;17.50;96.70
42421;DHT22;28063;48.140;11.588;2022-07-10T07:16:29;17.50;96.50
42421;DHT22;28063;48.140;11.588;2022-07-10T07:19:09;17.50;97.00
42421;DHT22;28063;48.140;11.588;2022-07-10T07:21:43;17.70;96.50
42421;DHT22;28063;48.140;11.588;2022-07-10T07:24:28;17.70;95.50
42421;DHT22;28063;48.140;11.588;2022-07-10T07:26:54;17.60;95.00
42421;DHT22;28063;48.140;11.588;2022-07-10T07:29:20;17.50;95.50
42421;DHT22;28063;48.140;11.588;2022-07-10T07:31:45;17.50;95.90
42421;DHT22;28063;48.140;11.588;2022-07-10T07:34:11;17.70;95.80
42421;DHT22;28063;48.140;11.588;2022-07-10T07:36:37;17.60;95.10
42421;DHT22;28063;48.140;11.588;2022-07-10T07:39:03;17.70;95.40
42421;DHT22;28063;48.140;11.588;2022-07-10T07:41:29;17.70;94.90
42421;DHT22;28063;48.140;11.588;2022-07-10T07:43:55;17.70;94.80
42421;DHT22;28063;48.140;11.588;2022-07-10T07:46:21;17.80;95.00
42421;DHT22;28063;48.140;11.588;2022-07-10T07:48:47;18.00;94.70
42421;DHT22;28063;48.140;11.588;2022-07-10T07:51:12;18.20;93.70
42421;DHT22;28063;48.140;11.588;2022-07-10T07:53:39;18.50;92.70
42421;DHT22;28063;48.140;11.588;2022-07-10T07:56:05;18.60;91.70
42421;DHT22;28063;48.140;11.588;2022-07-10T07:58:30;18.70;91.70
42421;DHT22;28063;48.140;11.588;2022-07-10T08:00:57;18.80;91.60
42421;DHT22;28063;48.140;11.588;2022-07-10T08:03:24;18.90;90.60
42421;DHT22;28063;48.140;11.588;2022-07-10T08:05:49;19.00;90.80
42421;DHT22;28063;48.140;11.588;2022-07-10T08:08:15;19.10;89.50
42421;DHT22;28063;48.140;11.588;2022-07-10T08:10:41;19.10;88.50
42421;DHT22;28063;48.140;11.588;2022-07-10T08:13:07;19.10;88.90
42421;DHT22;28063;48.140;11.588;2022-07-10T08:15:33;19.30;89.00
42421;DHT22;28063;48.140;11.588;2022-07-10T08:18:00;19.50;88.30
42421;DHT22;28063;48.140;11.588;2022-07-10T08:20:26;19.40;86.90
42421;DHT22;28063;48.140;11.588;2022-07-10T08:22:53;19.20;86.90
42421;DHT22;28063;48.140;11.588;2022-07-10T08:25:20;19.20;86.70
42421;DHT22;28063;48.140;11.588;2022-07-10T08:27:46;19.40;85.50
42421;DHT22;28063;48.140;11.588;2022-07-10T08:30:12;19.50;81.00
42421;DHT22;28063;48.140;11.588;2022-07-10T08:32:38;19.40;82.20
42421;DHT22;28063;48.140;11.588;2022-07-10T08:35:05;19.30;83.00
42421;DHT22;28063;48.140;11.588;2022-07-10T08:37:40;19.40;82.40
42421;DHT22;28063;48.140;11.588;2022-07-10T08:40:11;19.50;81.00
42421;DHT22;28063;48.140;11.588;2022-07-10T08:42:38;19.80;81.30
42421;DHT22;28063;48.140;11.588;2022-07-10T08:45:04;19.70;80.90
42421;DHT22;28063;48.140;11.588;2022-07-10T08:47:34;19.50;80.60
42421;DHT22;28063;48.140;11.588;2022-07-10T08:50:00;19.00;80.70
42421;DHT22;28063;48.140;11.588;2022-07-10T08:54:55;18.70;83.30
42421;DHT22;28063;48.140;11.588;2022-07-10T08:57:23;19.00;83.00
42421;DHT22;28063;48.140;11.588;2022-07-10T08:59:49;19.50;79.60
42421;DHT22;28063;48.140;11.588;2022-07-10T09:02:15;19.90;77.20
42421;DHT22;28063;48.140;11.588;2022-07-10T09:04:41;20.10;75.80
42421;DHT22;28063;48.140;11.588;2022-07-10T09:07:07;20.00;75.90
42421;DHT22;28063;48.140;11.588;2022-07-10T09:09:51;19.60;77.10
42421;DHT22;28063;48.140;11.588;2022-07-10T09:12:18;19.10;78.80
42421;DHT22;28063;48.140;11.588;2022-07-10T09:14:44;18.90;78.60
42421;DHT22;28063;48.140;11.588;2022-07-10T09:17:10;19.00;77.80
42421;DHT22;28063;48.140;11.588;2022-07-10T09:19:35;19.30;75.90
42421;DHT22;28063;48.140;11.588;2022-07-10T09:22:06;19.70;75.10
42421;DHT22;28063;48.140;11.588;2022-07-10T09:24:50;20.10;73.50
42421;DHT22;28063;48.140;11.588;2022-07-10T09:27:16;20.30;70.80
42421;DHT22;28063;48.140;11.588;2022-07-10T09:29:50;20.20;71.10
42421;DHT22;28063;48.140;11.588;2022-07-10T09:32:23;20.10;69.70
42421;DHT22;28063;48.140;11.588;2022-07-10T09:34:51;20.20;70.90
42421;DHT22;28063;48.140;11.588;2022-07-10T09:37:39;20.60;68.70
42421;DHT22;28063;48.140;11.588;2022-07-10T09:40:06;21.10;66.70
42421;DHT22;28063;48.140;11.588;2022-07-10T09:42:34;21.00;65.30
42421;DHT22;28063;48.140;11.588;2022-07-10T09:47:59;20.50;65.80
42421;DHT22;28063;48.140;11.588;2022-07-10T09:50:35;20.30;65.40
42421;DHT22;28063;48.140;11.588;2022-07-10T09:53:03;20.20;65.30
42421;DHT22;28063;48.140;11.588;2022-07-10T09:55:34;20.30;65.00
42421;DHT22;28063;48.140;11.588;2022-07-10T09:58:05;20.40;64.40
42421;DHT22;28063;48.140;11.588;2022-07-10T10:00:50;20.80;65.60
42421;DHT22;28063;48.140;11.588;2022-07-10T10:03:18;21.30;62.60
42421;DHT22;28063;48.140;11.588;2022-07-10T10:05:53;21.20;60.10
42421;DHT22;28063;48.140;11.588;2022-07-10T10:08:22;21.20;59.80
42421;DHT22;28063;48.140;11.588;2022-07-10T10:10:50;21.20;59.40
42421;DHT22;28063;48.140;11.588;2022-07-10T10:13:21;21.30;58.40
42421;DHT22;28063;48.140;11.588;2022-07-10T10:15:49;21.50;58.50
42421;DHT22;28063;48.140;11.588;2022-07-10T10:18:25;21.80;58.10
42421;DHT22;28063;48.140;11.588;2022-07-10T10:20:53;21.80;58.00
42421;DHT22;28063;48.140;11.588;2022-07-10T10:23:20;21.50;56.50
42421;DHT22;28063;48.140;11.588;2022-07-10T10:25:47;21.30;57.40
42421;DHT22;28063;48.140;11.588;2022-07-10T10:28:13;21.40;57.70
42421;DHT22;28063;48.140;11.588;2022-07-10T10:30:45;21.30;58.50
42421;DHT22;28063;48.140;11.588;2022-07-10T10:36:00;21.20;57.90
42421;DHT22;28063;48.140;11.588;2022-07-10T10:41:27;21.80;57.40
42421;DHT22;28063;48.140;11.588;2022-07-10T10:46:53;21.50;57.80
42421;DHT22;28063;48.140;11.588;2022-07-10T10:49:23;21.70;56.20
42421;DHT22;28063;48.140;11.588;2022-07-10T11:00:06;21.40;57.30
42421;DHT22;28063;48.140;11.588;2022-07-10T11:02:34;21.00;58.00
42421;DHT22;28063;48.140;11.588;2022-07-10T11:07:56;21.30;57.70
42421;DHT22;28063;48.140;11.588;2022-07-10T11:10:30;22.00;55.00
42421;DHT22;28063;48.140;11.588;2022-07-10T11:13:00;22.50;53.80
42421;DHT22;28063;48.140;11.588;2022-07-10T11:15:30;22.80;52.70
42421;DHT22;28063;48.140;11.588;2022-07-10T11:18:07;22.60;53.60
42421;DHT22;28063;48.140;11.588;2022-07-10T11:20:35;22.60;53.50
42421;DHT22;28063;48.140;11.588;2022-07-10T11:26:07;22.00;55.00
42421;DHT22;28063;48.140;11.588;2022-07-10T11:28:58;21.90;55.80
42421;DHT22;28063;48.140;11.588;2022-07-10T11:31:27;21.80;54.30
42421;DHT22;28063;48.140;11.588;2022-07-10T11:33:55;21.70;56.60
42421;DHT22;28063;48.140;11.588;2022-07-10T11:36:23;21.90;54.90
42421;DHT22;28063;48.140;11.588;2022-07-10T11:39:20;22.00;54.50
42421;DHT22;28063;48.140;11.588;2022-07-10T11:41:46;22.00;54.00
42421;DHT22;28063;48.140;11.588;2022-07-10T11:44:16;22.10;53.40
42421;DHT22;28063;48.140;11.588;2022-07-10T11:46:42;22.40;53.90
42421;DHT22;28063;48.140;11.588;2022-07-10T11:49:11;22.50;55.00
42421;DHT22;28063;48.140;11.588;2022-07-10T11:51:38;22.50;54.30
42421;DHT22;28063;48.140;11.588;2022-07-10T11:54:08;22.40;55.20
42421;DHT22;28063;48.140;11.588;2022-07-10T11:56:38;22.20;55.20
42421;DHT22;28063;48.140;11.588;2022-07-10T11:59:12;22.60;54.30
42421;DHT22;28063;48.140;11.588;2022-07-10T12:01:49;22.90;53.40
42421;DHT22;28063;48.140;11.588;2022-07-10T12:04:17;23.10;52.30
42421;DHT22;28063;48.140;11.588;2022-07-10T12:06:45;23.30;51.70
42421;DHT22;28063;48.140;11.588;2022-07-10T12:09:15;23.50;51.10
42421;DHT22;28063;48.140;11.588;2022-07-10T12:11:43;23.30;51.20
42421;DHT22;28063;48.140;11.588;2022-07-10T12:14:15;23.20;51.60
42421;DHT22;28063;48.140;11.588;2022-07-10T12:16:43;22.90;52.00
42421;DHT22;28063;48.140;11.588;2022-07-10T12:19:11;23.00;51.70
42421;DHT22;28063;48.140;11.588;2022-07-10T12:21:38;22.90;52.40
42421;DHT22;28063;48.140;11.588;2022-07-10T12:24:05;22.60;53.40
42421;DHT22;28063;48.140;11.588;2022-07-10T12:26:36;22.60;53.20
42421;DHT22;28063;48.140;11.588;2022-07-10T12:29:03;22.90;53.20
42421;DHT22;28063;48.140;11.588;2022-07-10T12:31:31;23.10;51.80
42421;DHT22;28063;48.140;11.588;2022-07-10T12:34:00;23.10;52.10
42421;DHT22;28063;48.140;11.588;2022-07-10T12:36:47;23.40;51.20
42421;DHT22;28063;48.140;11.588;2022-07-10T12:39:15;23.40;50.60
42421;DHT22;28063;48.140;11.588;2022-07-10T12:41:55;23.30;50.80
42421;DHT22;28063;48.140;11.588;2022-07-10T12:44:42;23.20;50.80
42421;DHT22;28063;48.140;11.588;2022-07-10T12:47:14;23.10;50.90
42421;DHT22;28063;48.140;11.588;2022-07-10T12:49:51;23.40;51.20
42421;DHT22;28063;48.140;11.588;2022-07-10T12:52:27;23.50;50.70
42421;DHT22;28063;48.140;11.588;2022-07-10T12:57:32;23.10;50.70
42421;DHT22;28063;48.140;11.588;2022-07-10T13:00:05;23.00;51.40
42421;DHT22;28063;48.140;11.588;2022-07-10T13:02:31;23.10;50.00
42421;DHT22;28063;48.140;11.588;2022-07-10T13:04:58;23.30;50.70
42421;DHT22;28063;48.140;11.588;2022-07-10T13:07:34;23.30;49.60
42421;DHT22;28063;48.140;11.588;2022-07-10T13:10:02;23.50;50.10
42421;DHT22;28063;48.140;11.588;2022-07-10T13:12:27;23.60;49.50
42421;DHT22;28063;48.140;11.588;2022-07-10T13:14:54;23.80;48.60
42421;DHT22;28063;48.140;11.588;2022-07-10T13:17:20;23.80;48.60
42421;DHT22;28063;48.140;11.588;2022-07-10T13:19:45;23.40;49.20
42421;DHT22;28063;48.140;11.588;2022-07-10T13:22:12;23.20;48.70
42421;DHT22;28063;48.140;11.588;2022-07-10T13:24:37;23.20;49.80
42421;DHT22;28063;48.140;11.588;2022-07-10T13:27:04;23.50;49.70
42421;DHT22;28063;48.140;11.588;2022-07-10T13:29:29;23.90;48.70
42421;DHT22;28063;48.140;11.588;2022-07-10T13:31:55;24.00;48.30
42421;DHT22;28063;48.140;11.588;2022-07-10T13:34:21;23.90;47.10
42421;DHT22;28063;48.140;11.588;2022-07-10T13:36:47;23.60;48.00
42421;DHT22;28063;48.140;11.588;2022-07-10T13:39:13;23.10;49.10
42421;DHT22;28063;48.140;11.588;2022-07-10T13:41:38;23.00;49.30
42421;DHT22;28063;48.140;11.588;2022-07-10T13:44:04;23.00;50.00
42421;DHT22;28063;48.140;11.588;2022-07-10T13:46:30;22.70;49.90
42421;DHT22;28063;48.140;11.588;2022-07-10T13:48:56;23.00;49.60
42421;DHT22;28063;48.140;11.588;2022-07-10T13:51:22;23.10;49.90
42421;DHT22;28063;48.140;11.588;2022-07-10T13:53:47;23.20;48.90
42421;DHT22;28063;48.140;11.588;2022-07-10T13:56:13;23.50;48.50
42421;DHT22;28063;48.140;11.588;2022-07-10T13:58:39;23.90;47.50
42421;DHT22;28063;48.140;11.588;2022-07-10T14:01:05;23.90;47.10
42421;DHT22;28063;48.140;11.588;2022-07-10T14:03:31;23.80;47.40
42421;DHT22;28063;48.140;11.588;2022-07-10T14:05:58;23.40;47.60
42421;DHT22;28063;48.140;11.588;2022-07-10T14:08:24;23.20;47.80
42421;DHT22;28063;48.140;11.588;2022-07-10T14:10:50;23.00;48.20
42421;DHT22;28063;48.140;11.588;2022-07-10T14:13:16;23.10;47.40
42421;DHT22;28063;48.140;11.588;2022-07-10T14:15:42;23.20;48.20
42421;DHT22;28063;48.140;11.588;2022-07-10T14:18:11;23.20;48.30
42421;DHT22;28063;48.140;11.588;2022-07-10T14:20:37;23.20;47.20
42421;DHT22;28063;48.140;11.588;2022-07-10T14:23:21;23.00;47.30
42421;DHT22;28063;48.140;11.588;2022-07-10T14:25:47;23.00;47.40
42421;DHT22;28063;48.140;11.588;2022-07-10T14:28:14;23.00;47.50
42421;DHT22;28063;48.140;11.588;2022-07-10T14:30:42;23.00;47.40
42421;DHT22;28063;48.140;11.588;2022-07-10T14:33:09;23.30;46.90
42421;DHT22;28063;48.140;11.588;2022-07-10T14:35:34;23.30;46.50
42421;DHT22;28063;48.140;11.588;2022-07-10T14:38:00;23.20;46.50
42421;DHT22;28063;48.140;11.588;2022-07-10T14:40:26;23.20;46.80
42421;DHT22;28063;48.140;11.588;2022-07-10T14:42:52;23.30;46.80
42421;DHT22;28063;48.140;11.588;2022-07-10T14:45:22;23.30;47.20
42421;DHT22;28063;48.140;11.588;2022-07-10T14:47:49;23.50;46.60
42421;DHT22;28063;48.140;11.588;2022-07-10T14:50:15;23.50;46.60
42421;DHT22;28063;48.140;11.588;2022-07-10T14:52:42;23.40;45.80
42421;DHT22;28063;48.140;11.588;2022-07-10T14:55:08;23.00;47.00
42421;DHT22;28063;48.140;11.588;2022-07-10T14:57:34;23.00;47.00
42421;DHT22;28063;48.140;11.588;2022-07-10T14:59:59;23.30;46.70
42421;DHT22;28063;48.140;11.588;2022-07-10T15:02:25;23.30;46.00
42421;DHT22;28063;48.140;11.588;2022-07-10T15:04:51;23.20;45.80
42421;DHT22;28063;48.140;11.588;2022-07-10T15:07:17;23.20;45.30
42421;DHT22;28063;48.140;11.588;2022-07-10T15:09:45;23.00;45.80
42421;DHT22;28063;48.140;11.588;2022-07-10T15:12:11;23.00;46.20
42421;DHT22;28063;48.140;11.588;2022-07-10T15:14:37;22.90;45.90
42421;DHT22;28063;48.140;11.588;2022-07-10T15:17:03;23.00;46.00
42421;DHT22;28063;48.140;11.588;2022-07-10T15:19:29;23.00;46.20
42421;DHT22;28063;48.140;11.588;2022-07-10T15:21:55;23.00;46.40
42421;DHT22;28063;48.140;11.588;2022-07-10T15:24:20;23.00;46.00
42421;DHT22;28063;48.140;11.588;2022-07-10T15:26:46;23.00;46.10
42421;DHT22;28063;48.140;11.588;2022-07-10T15:29:12;22.90;46.10
42421;DHT22;28063;48.140;11.588;2022-07-10T15:31:38;22.80;46.10
42421;DHT22;28063;48.140;11.588;2022-07-10T15:34:09;22.60;46.20
42421;DHT22;28063;48.140;11.588;2022-07-10T15:36:35;22.50;46.70
42421;DHT22;28063;48.140;11.588;2022-07-10T15:39:01;22.40;46.90
42421;DHT22;28063;48.140;11.588;2022-07-10T15:41:27;22.40;47.00
42421;DHT22;28063;48.140;11.588;2022-07-10T15:43:53;22.50;47.20
42421;DHT22;28063;48.140;11.588;2022-07-10T15:46:19;22.50;46.30
42421;DHT22;28063;48.140;11.588;2022-07-10T15:48:44;22.40;46.30